Terminal Aerodrome Forecast
Issued by NWS

Home | Current Version | Previous Version | Text Only | Print | Product List | Glossary On
Versions: 1 2 3 4 5 6 7 8 9 10 11 12 13 14 15 16 17 18 19 20 21 22 23 24
000
FTUS43 KJKL 202200 AAC
TAFSME
TAF AMD
KSME 202213Z 2022/2118 27006KT 6SM -SHRA BR VCTS SCT020CB BKN035
      TEMPO 2022/2023 VRB15G28KT 1SM +TSRA SCT007 OVC020CB
     FM210100 VRB03KT 5SM BR SCT040 BKN200
     FM210500 00000KT 1SM BR BKN250
     FM211000 00000KT 1/4SM FG OVC002
     FM211400 25008KT P6SM VCTS SCT020CB BKN040=

USA.gov is the U.S. government's official web portal to all federal, state and local government web resources and services.